Accueil
METAR-TAF:

METAR-TAF

Aéroports :

Cassel, Allemagne

latitude: 51-24N, longitude: 009-23E, altitude: 277 m

Observation

Le bulletin a été fait il y a 44 minutes, à 11:20 UTC
Vent 13 kt de ouest
Température 18°C
Humidité 77%
Pression 1018 hPa
Visibilité 10 km ou plus
Quelques nuages à une hauteur de 1700 ft
Nuages épars à une hauteur de 2500 ft, Cumulus congestus.
Nuages fragmentés à une hauteur de 4500 ft
averses à proximité

METAR: EDVK 121120Z 28013KT 9999 VCSH FEW017 SCT025TCU BKN045 18/14 Q1018

Heure: 14:04 (12:04 UTC)

Prévision

Le bulletin a été fait il y a 1 heure et 4 minutes, à 11:00 UTC
Prévision valable du 12 à 12 UTC au 12 à 21 UTC
Vent 14 kt de ouest/nord-ouest
Visibilité 10 km ou plus
Nuages épars à une hauteur de 2500 ft
Temporairement
du 12 à 12 UTC au 12 à 18 UTC
Vent 15 kt de ouest/nord-ouest avec des rafales jusqu'à 25 kt

TAF: EDVK 121100Z 1212/1221 30014KT 9999 SCT025 TEMPO 1212/1218 30015G25KT

Observations et prévisions météorologiques de plus de 4000 aéroports (messages METAR et TAF).

Les stations disponibles sont représentées par des disques jaunes et rouges sur la carte.

Passer la souris dessus pour voir le nom de la station.

Cliquer dessus pour voir les observations et prévisions météorologiques.

Pour changer de carte: cliquez sur les boutons verts avec une croix noire pour zoomer, sur le bouton vert avec un tiret pour effectuer un zoom arrière, ou sur les flèches vertes pour les cartes adjacentes.


METAR-TAF: